Normanna, TX (78142)

12:48 PM CST on November 28, 2014 (GMT -0600)
Beeville | Change Station
CLOSE
Current Station
Airport
Location: Beeville,
Elevation: 269 ft
Nearby Weather Stations

Elev 269 ft 28.37 °N, 97.80 °W | Updated 13 minutes ago

Clear
Clear
73 °F
Feels Like 73 °F
N
21
Wind Variable Wind from South

Today
High -- | Low -- °F
--% Chance of Precip.
Yesterday
High -- | Low -- °F
Precip. -- in
7:03 AM 5:34 PM
Waxing Crescent, 43% visible
Pressure 30.23 in
Visibility 10.0 miles
Clouds Clear
Dew Point 50 °F
Humidity 45%
Rainfall 0.00 in
Snow Depth Not available.
UV 5 out of 12
Pollen 4.50 out of 12
Air Quality Not available.
Flu Activity Not available.
METAR KBEA 281835Z AUTO 18018KT 10SM CLR 23/10 A3023 RMK AO2 T02270102

More Conditions Fewer Conditions

Pressure 30.23 in
Visibility 10.0 miles
Clouds Clear
Dew Point 50 °F
Humidity 45%
Rainfall 0.00 in
Snow Depth Not available.
UV 5 out of 12
Pollen 4.50 out of 12
Air Quality Not available.
Flu Activity Not available.
METAR KBEA 281835Z AUTO 18018KT 10SM CLR 23/10 A3023 RMK AO2 T02270102

More Conditions Fewer Conditions

10-Day Weather Forecast

Almanac

Astronomy

Nov. 28, 2014 Rise Set
Actual Time
Civil Twilight
Nautical Twilight
Astronomical Twilight
Moon
Length of Visible Light
Length of Day
Tomorrow will be .
, % of the Moon is Illuminated

Today's Extremes

State Highs State Lows

Community

WunderPhotos

Upload Photos

1,774,257 photos uploaded!

WunderBlogs® & News

Nearby

Air Quality

  Air Quality AQ Index Pollutant
Not available.

Snow Depth

Station Depth Elevation

Earthquake Activity

City Distance Mag. Time & Date
Minimum magnitude displayed is 2.5.

Coastal Water Temperatures

Place Temperature

Nearby Weather Stations